Time;durP1;ratioP1;P1;durP2;ratioP2;P2;SDS_P1;SDS_P2;PMS_P1;PMS_P2;Temp;Humidity;BMP_temperature;BMP_pressure;BME280_temperature;BME280_humidity;BME280_pressure;Samples;Min_cycle;Max_cycle;Signal;HPM_P1;HPM_P2
2023/09/24 00:02:05;;;;;;;5.00;2.95;;;;;;;22.60;61.79;99423.06;4936145;29;20031;-91
2023/09/24 00:04:31;;;;;;;8.25;2.40;;;;;;;22.64;61.74;99421.91;4935514;29;20379;-92
2023/09/24 00:06:56;;;;;;;5.88;3.20;;;;;;;22.30;62.19;99373.16;4935667;29;20062;-91
2023/09/24 00:09:22;;;;;;;12.38;2.97;;;;;;;22.33;62.11;99363.06;4953564;29;20054;-92
2023/09/24 00:11:48;;;;;;;11.75;3.10;;;;;;;22.34;62.00;99382.75;4938219;29;20031;-91
2023/09/24 00:14:14;;;;;;;3.85;2.33;;;;;;;22.78;61.76;99405.66;4969957;29;20031;-91
2023/09/24 00:16:40;;;;;;;5.53;3.00;;;;;;;22.55;61.95;99401.03;4974572;29;20055;-91
2023/09/24 00:19:06;;;;;;;2.90;1.70;;;;;;;22.70;61.93;99399.97;4960604;29;20042;-91
2023/09/24 00:21:31;;;;;;;6.80;2.90;;;;;;;22.74;61.85;99398.81;4948397;29;20047;-93
2023/09/24 00:23:58;;;;;;;9.07;2.45;;;;;;;22.74;61.83;99406.00;4933403;29;20032;-91
2023/09/24 00:26:24;;;;;;;11.43;4.72;;;;;;;22.61;62.14;99412.22;4933787;29;20110;-91
2023/09/24 00:28:50;;;;;;;2.58;2.38;;;;;;;22.96;62.90;99483.34;4916467;29;20036;-90
2023/09/24 00:31:18;;;;;;;7.80;3.00;;;;;;;22.58;62.98;99438.47;4935795;29;20050;-92
2023/09/24 00:33:43;;;;;;;11.73;2.70;;;;;;;22.42;63.43;99434.13;4916346;29;20044;-92
2023/09/24 00:36:09;;;;;;;8.50;3.50;;;;;;;22.36;63.86;99429.19;4933616;29;20038;-89
2023/09/24 00:38:36;;;;;;;11.18;4.43;;;;;;;22.12;64.62;99419.13;4916524;29;20031;-90
2023/09/24 00:41:02;;;;;;;3.22;2.00;;;;;;;22.08;64.74;99420.28;4933580;29;20490;-89
2023/09/24 00:43:28;;;;;;;3.30;2.53;;;;;;;21.93;65.08;99397.13;4934798;29;20119;-90
2023/09/24 00:45:59;;;;;;;3.92;2.58;;;;;;;21.92;65.60;99411.50;4916240;29;20126;-89
2023/09/24 00:48:29;;;;;;;7.60;3.17;;;;;;;21.66;65.85;99365.81;4933512;29;20075;-89
2023/09/24 00:50:59;;;;;;;3.15;1.98;;;;;;;21.88;66.04;99410.88;4933278;29;20032;-91
2023/09/24 00:53:27;;;;;;;5.25;3.13;;;;;;;22.11;65.31;99421.91;4933335;29;20038;-90
2023/09/24 00:55:55;;;;;;;12.82;5.95;;;;;;;22.21;64.94;99440.94;4933340;29;20035;-90
2023/09/24 00:58:25;;;;;;;5.40;3.05;;;;;;;22.60;64.10;99453.53;4916161;29;20050;-91
2023/09/24 01:00:55;;;;;;;4.18;2.28;;;;;;;22.34;63.76;99412.31;4933191;29;20075;-90
2023/09/24 01:03:24;;;;;;;4.95;2.33;;;;;;;22.26;63.81;99407.44;4948478;29;20045;-91
2023/09/24 01:05:54;;;;;;;5.20;2.17;;;;;;;22.44;63.40;99396.41;4952085;28;20039;-91
2023/09/24 01:08:21;;;;;;;8.23;2.85;;;;;;;22.63;63.51;99456.00;4952040;29;20039;-91
2023/09/24 01:10:48;;;;;;;7.00;3.22;;;;;;;22.74;63.05;99476.78;4951782;29;20512;-92
2023/09/24 01:13:23;;;;;;;5.28;3.28;;;;;;;22.70;62.94;99462.66;4934827;29;20127;-91
2023/09/24 01:15:52;;;;;;;5.30;2.97;;;;;;;22.57;63.02;99456.44;4932701;29;20391;-92
2023/09/24 01:18:19;;;;;;;4.60;2.97;;;;;;;22.64;62.68;99465.78;4935159;29;20102;-92
2023/09/24 01:20:46;;;;;;;6.85;3.55;;;;;;;22.50;62.60;99437.16;4951996;29;20219;-92
2023/09/24 01:23:14;;;;;;;4.18;2.63;;;;;;;22.59;62.80;99445.56;4918641;29;20045;-91
2023/09/24 01:25:41;;;;;;;6.40;3.30;;;;;;;22.41;63.95;99459.28;4950110;29;20035;-89
2023/09/24 01:28:07;;;;;;;4.38;2.60;;;;;;;22.21;63.81;99420.28;4952551;29;20059;-90
2023/09/24 01:30:34;;;;;;;6.32;4.10;;;;;;;22.50;63.94;99480.16;4951638;29;20052;-89
2023/09/24 01:33:01;;;;;;;10.45;3.33;;;;;;;22.15;63.63;99408.16;4934761;29;20426;-88
2023/09/24 01:35:29;;;;;;;4.13;2.08;;;;;;;22.00;63.62;99379.66;4950532;29;20039;-88
2023/09/24 01:38:00;;;;;;;8.75;3.20;;;;;;;22.15;63.41;99409.97;4934624;29;20039;-89
2023/09/24 01:40:37;;;;;;;7.18;3.08;;;;;;;22.02;63.97;99411.78;4951792;29;20506;-89
2023/09/24 01:43:08;;;;;;;9.65;3.08;;;;;;;22.09;63.84;99439.91;4934758;29;20145;-89
2023/09/24 01:45:34;;;;;;;13.05;2.60;;;;;;;21.74;64.22;99387.63;4952071;29;20114;-89
2023/09/24 01:48:03;;;;;;;4.00;2.20;;;;;;;21.66;64.30;99419.47;4950395;29;20081;-88
2023/09/24 01:50:32;;;;;;;3.38;2.38;;;;;;;21.63;64.19;99408.94;4935042;29;20036;-90
2023/09/24 01:52:58;;;;;;;5.20;2.63;;;;;;;21.88;63.83;99445.75;4951419;29;20050;-89
2023/09/24 01:55:28;;;;;;;5.88;2.85;;;;;;;21.75;63.87;99436.78;4952428;29;20027;-90
2023/09/24 01:57:54;;;;;;;5.40;3.13;;;;;;;21.45;64.46;99384.97;4950441;29;20118;-88
2023/09/24 02:00:23;;;;;;;7.10;3.38;;;;;;;21.66;64.42;99442.75;4940458;29;20490;-89
2023/09/24 02:02:59;;;;;;;6.47;2.97;;;;;;;21.91;64.02;99475.09;4915439;29;20470;-92
2023/09/24 02:05:32;;;;;;;5.68;2.97;;;;;;;21.60;64.50;99444.03;4933153;29;20039;-91
2023/09/24 02:07:57;;;;;;;7.85;2.67;;;;;;;21.23;65.36;99409.66;4916577;29;20032;-91
2023/09/24 02:10:23;;;;;;;5.97;3.42;;;;;;;21.44;64.68;99430.69;4932725;29;20040;-90
2023/09/24 02:12:49;;;;;;;6.82;2.97;;;;;;;21.78;65.10;99480.41;4915053;29;20063;-90
2023/09/24 02:15:19;;;;;;;8.38;3.40;;;;;;;21.60;64.83;99411.81;4932799;29;20403;-90
2023/09/24 02:17:48;;;;;;;5.60;3.67;;;;;;;21.48;65.43;99415.28;4932876;29;20035;-90
2023/09/24 02:20:27;;;;;;;6.13;2.90;;;;;;;21.59;65.85;99434.25;4936985;29;20052;-90
2023/09/24 02:22:56;;;;;;;11.02;2.75;;;;;;;21.69;65.64;99455.97;4918228;29;20067;-90
2023/09/24 02:25:23;;;;;;;8.85;2.95;;;;;;;21.72;65.27;99448.59;4955018;29;20048;-92
2023/09/24 02:27:50;;;;;;;5.78;3.53;;;;;;;21.87;64.76;99444.03;4954857;29;20035;-91
2023/09/24 02:30:18;;;;;;;5.55;3.47;;;;;;;21.74;64.97;99444.00;4928160;29;20091;-90
2023/09/24 02:32:44;;;;;;;5.65;3.75;;;;;;;22.03;65.43;99504.78;4935715;29;20070;-92
2023/09/24 02:35:11;;;;;;;6.82;3.22;;;;;;;21.97;64.79;99468.47;4936316;29;20039;-90
2023/09/24 02:37:41;;;;;;;7.68;3.22;;;;;;;21.75;65.23;99451.09;4935497;29;20036;-91
2023/09/24 02:40:11;;;;;;;5.18;2.78;;;;;;;21.53;65.31;99411.34;4920221;29;20063;-92
2023/09/24 02:42:37;;;;;;;3.72;2.75;;;;;;;21.62;65.18;99448.31;4954644;29;20039;-92
2023/09/24 02:45:05;;;;;;;4.55;3.33;;;;;;;21.38;65.40;99393.53;4937578;29;20102;-90
2023/09/24 02:47:31;;;;;;;3.97;3.20;;;;;;;21.62;64.87;99424.16;4954864;29;20114;-91
2023/09/24 02:49:57;;;;;;;5.00;3.65;;;;;;;21.33;65.19;99422.47;4955330;29;20039;-94
2023/09/24 02:52:23;;;;;;;4.60;2.80;;;;;;;21.71;65.18;99503.25;4935609;29;20027;-94
2023/09/24 02:54:49;;;;;;;6.72;3.92;;;;;;;21.56;65.03;99454.09;4934198;29;20047;-93
2023/09/24 02:57:15;;;;;;;14.55;3.50;;;;;;;21.40;64.91;99450.66;4915685;29;20035;-91
2023/09/24 02:59:40;;;;;;;4.70;2.70;;;;;;;21.27;65.10;99416.56;4935087;29;20098;-91
2023/09/24 03:02:06;;;;;;;6.65;3.72;;;;;;;21.37;65.64;99449.00;4936154;29;20039;-91
2023/09/24 03:04:32;;;;;;;4.15;2.60;;;;;;;21.33;66.10;99460.88;4934898;29;20042;-91
2023/09/24 03:06:57;;;;;;;5.13;2.47;;;;;;;21.65;65.93;99506.31;4935119;29;20031;-91
2023/09/24 03:09:24;;;;;;;6.15;2.45;;;;;;;21.19;66.15;99436.75;4935333;29;20039;-92
2023/09/24 03:11:49;;;;;;;4.90;3.33;;;;;;;21.29;66.29;99445.97;4935050;29;20032;-91
2023/09/24 03:14:15;;;;;;;5.68;2.92;;;;;;;21.38;66.63;99472.22;4935486;29;20087;-90
2023/09/24 03:16:40;;;;;;;7.63;4.70;;;;;;;21.24;66.87;99451.63;4935177;29;20090;-92
2023/09/24 03:19:06;;;;;;;7.35;3.60;;;;;;;21.29;66.95;99472.78;4935092;29;20044;-91
2023/09/24 03:21:31;;;;;;;5.57;3.13;;;;;;;21.41;66.75;99495.28;4935270;29;20127;-91
2023/09/24 03:23:59;;;;;;;6.90;3.72;;;;;;;21.29;67.14;99483.50;4920112;29;20059;-94
2023/09/24 03:26:26;;;;;;;4.78;2.67;;;;;;;21.34;67.07;99505.53;4918146;29;20431;-93
2023/09/24 03:28:53;;;;;;;4.88;2.55;;;;;;;21.35;67.45;99504.59;4926165;29;20131;-96
2023/09/24 03:31:18;;;;;;;6.15;4.47;;;;;;;20.93;68.00;99448.16;4919916;29;20431;-94
2023/09/24 03:33:45;;;;;;;5.53;3.47;;;;;;;21.01;68.12;99466.47;4901856;29;20040;-93
2023/09/24 03:36:10;;;;;;;3.33;2.35;;;;;;;20.94;67.72;99443.66;4917773;29;20494;-95
2023/09/24 03:38:37;;;;;;;4.43;3.10;;;;;;;21.13;67.89;99488.09;4918893;29;20163;-95
2023/09/24 03:41:03;;;;;;;5.60;3.17;;;;;;;20.91;67.95;99466.19;4904637;29;20040;-92
2023/09/24 03:44:03;;;;;;;11.00;3.63;;;;;;;21.04;68.52;99509.19;4927773;29;20095;-96
2023/09/24 03:46:29;;;;;;;3.92;2.25;;;;;;;21.02;68.74;99515.56;4915258;29;20059;-96
2023/09/24 03:49:01;;;;;;;4.50;3.13;;;;;;;20.62;69.06;99451.84;4907534;29;20055;-96
2023/09/24 03:51:27;;;;;;;5.18;2.90;;;;;;;20.74;68.65;99443.09;4911005;29;20036;-96
2023/09/24 03:53:54;;;;;;;5.80;3.20;;;;;;;20.78;68.25;99441.06;4919649;29;20039;-96
2023/09/24 03:56:21;;;;;;;6.43;2.92;;;;;;;21.18;68.44;99507.44;4908971;29;20415;-96
2023/09/24 03:58:47;;;;;;;6.97;3.53;;;;;;;21.06;67.90;99469.72;4933966;29;20131;-96
2023/09/24 04:01:13;;;;;;;6.75;3.75;;;;;;;20.86;67.85;99462.03;4914813;29;20035;-96
2023/09/24 04:03:39;;;;;;;5.65;3.13;;;;;;;20.60;68.14;99444.84;4937419;29;20039;-96
2023/09/24 04:06:10;;;;;;;10.90;4.47;;;;;;;20.54;68.67;99454.09;4936988;29;20042;-96
2023/09/24 04:08:37;;;;;;;8.70;3.15;;;;;;;20.44;68.86;99445.75;4924030;29;20058;-96
2023/09/24 04:11:08;;;;;;;5.57;4.32;;;;;;;20.89;68.40;99489.50;4921702;29;20036;-96
2023/09/24 04:13:35;;;;;;;17.40;4.00;;;;;;;20.62;68.71;99465.25;4903578;29;20051;-96
2023/09/24 04:16:14;;;;;;;11.27;5.00;;;;;;;20.63;69.05;99492.88;4918237;29;20062;-96
2023/09/24 04:18:43;;;;;;;15.43;4.32;;;;;;;20.31;69.26;99440.28;4930998;29;20047;-95
2023/09/24 04:21:17;;;;;;;5.25;3.92;;;;;;;20.47;69.58;99487.59;4918518;29;20038;-96
2023/09/24 04:23:43;;;;;;;4.03;2.78;;;;;;;20.27;70.21;99465.50;4918226;29;20031;-95
2023/09/24 04:26:22;;;;;;;9.27;3.75;;;;;;;20.44;69.28;99472.56;4916972;29;20115;-96
2023/09/24 04:28:57;;;;;;;3.78;2.65;;;;;;;20.73;69.89;99523.59;4935595;29;20090;-96
2023/09/24 04:31:38;;;;;;;10.35;3.85;;;;;;;20.34;70.26;99472.25;4928202;29;20106;-94
2023/09/24 04:34:03;;;;;;;8.13;4.13;;;;;;;20.55;69.94;99512.09;4934109;29;20039;-95
2023/09/24 04:36:29;;;;;;;8.85;2.42;;;;;;;20.35;69.68;99455.19;4935485;29;20039;-94
2023/09/24 04:38:56;;;;;;;5.88;3.95;;;;;;;20.61;69.63;99492.13;4929400;29;20036;-95
2023/09/24 04:41:24;;;;;;;8.55;3.83;;;;;;;20.63;69.38;99477.66;4933327;29;20035;-95
2023/09/24 04:43:52;;;;;;;5.82;3.78;;;;;;;20.88;68.96;99511.94;4905213;29;20036;-96
2023/09/24 04:46:26;;;;;;;12.45;5.35;;;;;;;20.75;68.71;99492.19;4938271;29;20027;-96
2023/09/24 04:48:55;;;;;;;19.50;4.05;;;;;;;20.80;68.99;99487.41;4921768;29;20046;-95
2023/09/24 04:51:21;;;;;;;15.10;4.00;;;;;;;21.04;69.17;99544.03;4952999;29;20074;-92
2023/09/24 04:53:47;;;;;;;8.75;3.20;;;;;;;21.05;68.96;99515.38;4952738;29;20027;-92
2023/09/24 04:56:12;;;;;;;4.78;2.47;;;;;;;21.03;68.07;99504.75;4968985;29;20051;-89
2023/09/24 04:58:40;;;;;;;3.75;2.45;;;;;;;21.38;67.94;99538.41;4956730;29;20506;-93
2023/09/24 05:01:07;;;;;;;20.67;4.10;;;;;;;21.21;67.68;99517.97;4933467;29;20027;-89
2023/09/24 05:03:35;;;;;;;5.20;3.35;;;;;;;21.24;67.67;99507.06;4924395;29;20040;-86
2023/09/24 05:06:03;;;;;;;12.98;4.45;;;;;;;21.73;67.53;99586.34;4958862;29;20035;-88
2023/09/24 05:08:29;;;;;;;4.53;3.03;;;;;;;21.56;67.55;99547.16;4951700;29;20039;-95
2023/09/24 05:10:55;;;;;;;9.70;4.95;;;;;;;21.52;67.26;99505.34;4932851;29;20531;-86
2023/09/24 05:13:20;;;;;;;9.80;4.97;;;;;;;21.70;67.17;99533.72;4951904;29;20140;-88
2023/09/24 05:15:59;;;;;;;9.68;4.25;;;;;;;22.20;66.83;99603.94;4952108;29;20110;-94
2023/09/24 05:18:26;;;;;;;9.77;4.13;;;;;;;21.95;66.64;99557.19;4951876;29;20035;-90
2023/09/24 05:20:53;;;;;;;4.47;2.42;;;;;;;22.20;66.91;99603.94;4952475;29;20122;-92
2023/09/24 05:23:18;;;;;;;5.47;3.22;;;;;;;22.03;66.58;99553.13;4950119;29;20074;-96
2023/09/24 05:25:45;;;;;;;3.85;2.58;;;;;;;22.51;66.38;99605.50;4951372;29;20047;-89
2023/09/24 05:28:10;;;;;;;13.02;2.42;;;;;;;22.21;66.04;99519.69;4937240;29;20031;-90
2023/09/24 05:30:36;;;;;;;5.78;3.65;;;;;;;22.16;65.62;99511.94;4944261;29;20055;-96
2023/09/24 05:33:03;;;;;;;15.25;3.50;;;;;;;22.52;65.84;99553.50;4929262;29;20406;-96
2023/09/24 05:35:29;;;;;;;4.95;2.42;;;;;;;22.58;65.49;99572.84;4915927;29;20577;-94
2023/09/24 05:37:54;;;;;;;7.82;3.22;;;;;;;22.60;64.66;99546.72;4931110;29;20036;-91
2023/09/24 05:40:20;;;;;;;3.58;2.60;;;;;;;22.51;64.86;99570.56;4932498;29;20040;-90
2023/09/24 05:42:46;;;;;;;6.15;3.08;;;;;;;22.61;64.67;99556.53;4933410;29;20739;-94
2023/09/24 05:45:12;;;;;;;6.20;3.00;;;;;;;22.85;63.97;99571.00;4929657;29;20038;-89
2023/09/24 05:47:39;;;;;;;5.20;3.20;;;;;;;23.30;63.77;99613.69;4934332;29;20074;-90
2023/09/24 05:50:06;;;;;;;9.77;3.45;;;;;;;22.98;63.82;99564.78;4932120;29;20418;-91
2023/09/24 05:52:32;;;;;;;5.03;2.70;;;;;;;23.08;62.95;99557.81;4917164;29;20031;-91
2023/09/24 05:54:57;;;;;;;4.32;3.00;;;;;;;23.35;62.40;99573.88;4936803;29;20031;-91
2023/09/24 05:57:27;;;;;;;4.22;2.90;;;;;;;23.21;61.78;99556.00;4936653;29;20038;-92
2023/09/24 05:59:56;;;;;;;5.28;2.58;;;;;;;23.33;61.58;99556.97;4918837;29;20032;-90
2023/09/24 06:02:25;;;;;;;6.90;3.95;;;;;;;23.36;61.73;99554.06;4935686;29;20163;-91
2023/09/24 06:04:52;;;;;;;13.82;3.80;;;;;;;23.42;61.61;99550.94;4921629;29;20494;-90
2023/09/24 06:07:18;;;;;;;7.47;3.42;;;;;;;23.89;60.42;99574.63;4948000;29;20032;-92
2023/09/24 06:09:44;;;;;;;5.80;3.35;;;;;;;23.85;59.86;99538.09;4918926;29;20034;-91
2023/09/24 06:12:10;;;;;;;8.48;3.67;;;;;;;24.37;59.41;99590.00;4935587;29;20059;-91
2023/09/24 06:14:35;;;;;;;4.57;2.95;;;;;;;24.59;58.61;99589.28;4935458;29;20063;-89
2023/09/24 06:17:02;;;;;;;5.72;3.85;;;;;;;24.30;58.73;99549.16;4936553;29;20040;-90
2023/09/24 06:19:28;;;;;;;5.32;3.05;;;;;;;24.24;58.21;99544.22;4935336;29;20119;-91
2023/09/24 06:21:53;;;;;;;6.20;2.50;;;;;;;24.60;57.74;99588.31;4948472;29;20118;-94
2023/09/24 06:24:20;;;;;;;3.17;2.03;;;;;;;24.37;57.99;99563.03;4918645;29;20059;-91
2023/09/24 06:26:45;;;;;;;5.72;3.15;;;;;;;24.52;57.96;99550.25;4924978;29;20051;-89
2023/09/24 06:29:11;;;;;;;11.63;3.50;;;;;;;24.72;57.63;99567.66;4918696;29;20035;-91
2023/09/24 06:31:38;;;;;;;5.65;2.30;;;;;;;24.95;56.91;99565.91;4938963;29;20130;-89
2023/09/24 06:34:03;;;;;;;3.97;1.88;;;;;;;25.30;56.35;99592.00;4920504;29;20050;-89
2023/09/24 06:36:29;;;;;;;3.88;2.60;;;;;;;25.51;55.15;99582.22;4936042;29;20039;-89
2023/09/24 06:38:56;;;;;;;4.13;2.40;;;;;;;25.60;54.94;99596.84;4935645;29;20507;-90
2023/09/24 06:41:22;;;;;;;5.35;3.25;;;;;;;25.57;54.57;99593.53;4937160;29;20391;-90
2023/09/24 06:43:48;;;;;;;3.70;2.13;;;;;;;25.65;54.39;99554.09;4937006;29;20043;-90
2023/09/24 06:46:13;;;;;;;11.27;2.63;;;;;;;25.71;53.86;99556.31;4937304;29;20039;-89
2023/09/24 06:48:39;;;;;;;3.70;2.40;;;;;;;25.95;53.57;99590.47;4927638;29;20047;-85
2023/09/24 06:51:11;;;;;;;10.23;2.60;;;;;;;26.03;52.82;99544.78;4935573;29;20119;-93
2023/09/24 06:53:38;;;;;;;10.48;2.17;;;;;;;26.57;52.28;99632.28;4935097;29;20091;-87
2023/09/24 06:56:07;;;;;;;4.68;3.22;;;;;;;26.29;52.29;99594.97;4935162;29;20063;-89
2023/09/24 06:58:33;;;;;;;6.85;2.08;;;;;;;26.63;51.90;99584.91;4934927;29;20112;-87
2023/09/24 07:01:06;;;;;;;10.82;4.97;;;;;;;26.82;50.33;99599.63;4937076;29;20055;-91
2023/09/24 07:03:32;;;;;;;6.45;3.42;;;;;;;26.31;51.11;99561.44;4933274;29;20075;-91
2023/09/24 07:05:58;;;;;;;5.22;2.83;;;;;;;26.52;50.72;99558.75;4915867;29;20040;-91
2023/09/24 07:08:24;;;;;;;5.32;2.45;;;;;;;26.51;50.32;99551.66;4938362;29;20174;-91
2023/09/24 07:11:23;;;;;;;4.63;2.17;;;;;;;26.71;51.01;99606.81;4927032;29;20039;-90
2023/09/24 07:13:50;;;;;;;3.63;2.60;;;;;;;26.59;50.72;99578.06;4936065;29;20031;-90
2023/09/24 07:16:15;;;;;;;5.70;2.33;;;;;;;26.75;49.76;99556.00;4922369;29;20111;-86
2023/09/24 07:18:41;;;;;;;5.22;2.38;;;;;;;27.11;49.72;99583.59;4935477;29;20167;-89
2023/09/24 07:21:10;;;;;;;3.50;2.25;;;;;;;27.13;48.70;99566.25;4935155;29;20042;-89
2023/09/24 07:23:35;;;;;;;3.53;2.38;;;;;;;27.35;48.38;99574.41;4904117;29;20630;-86
2023/09/24 07:26:01;;;;;;;9.20;3.40;;;;;;;27.43;47.29;99542.09;4935163;29;20102;-87
2023/09/24 07:28:26;;;;;;;7.38;3.63;;;;;;;27.40;47.20;99555.88;4935017;29;20163;-85
2023/09/24 07:30:55;;;;;;;5.63;2.30;;;;;;;27.50;47.50;99563.06;4942351;29;20052;-88
2023/09/24 07:33:21;;;;;;;7.22;3.50;;;;;;;27.81;46.48;99537.81;4918102;29;20050;-88
2023/09/24 07:35:47;;;;;;;4.85;2.20;;;;;;;27.74;46.63;99563.75;4917772;29;20417;-85
2023/09/24 07:38:12;;;;;;;6.57;2.60;;;;;;;27.76;46.83;99543.66;4933584;29;20159;-86
2023/09/24 07:40:39;;;;;;;10.98;3.72;;;;;;;28.04;45.99;99581.88;4933207;29;20032;-87
2023/09/24 07:43:07;;;;;;;4.63;2.70;;;;;;;28.09;46.08;99568.75;4934441;29;20126;-88
2023/09/24 07:45:32;;;;;;;6.90;2.80;;;;;;;28.38;45.64;99560.66;4933990;29;20035;-87
2023/09/24 07:47:58;;;;;;;10.40;3.33;;;;;;;28.43;45.19;99562.13;4934209;29;20028;-87
2023/09/24 07:50:23;;;;;;;8.00;2.22;;;;;;;27.97;45.48;99530.03;4934734;29;20036;-87
2023/09/24 07:52:49;;;;;;;5.72;2.45;;;;;;;28.47;44.91;99571.66;4933818;29;20485;-87
2023/09/24 07:55:15;;;;;;;5.60;2.35;;;;;;;28.54;44.64;99554.69;4934246;29;20423;-86
2023/09/24 07:57:41;;;;;;;3.88;2.58;;;;;;;28.53;44.41;99565.66;4934082;29;20036;-87
2023/09/24 08:00:07;;;;;;;5.30;2.83;;;;;;;28.80;43.85;99526.16;4934316;29;20533;-87
2023/09/24 08:02:33;;;;;;;4.43;2.35;;;;;;;29.09;42.19;99537.81;4934007;29;20039;-86
2023/09/24 08:04:58;;;;;;;10.77;2.60;;;;;;;29.18;42.95;99567.81;4934279;29;20032;-87
2023/09/24 08:07:26;;;;;;;4.13;2.55;;;;;;;28.99;42.83;99512.53;4916299;29;20031;-87
2023/09/24 08:09:51;;;;;;;4.75;2.17;;;;;;;29.08;41.99;99552.38;4934146;29;20031;-87
2023/09/24 08:12:18;;;;;;;3.70;2.30;;;;;;;28.98;41.52;99543.44;4933767;29;20024;-88
2023/09/24 08:14:43;;;;;;;7.78;3.50;;;;;;;28.69;42.21;99557.88;4934269;29;20507;-86
2023/09/24 08:17:10;;;;;;;8.57;2.40;;;;;;;28.35;42.78;99512.13;4933415;29;20083;-86
2023/09/24 08:19:36;;;;;;;12.88;2.15;;;;;;;28.33;42.65;99546.69;4934123;29;20042;-85
2023/09/24 08:22:01;;;;;;;7.32;2.35;;;;;;;28.43;42.84;99540.41;4933591;29;20031;-87
2023/09/24 08:24:27;;;;;;;4.45;2.35;;;;;;;28.66;43.08;99508.47;4933847;29;20039;-86
2023/09/24 08:26:52;;;;;;;9.13;6.25;;;;;;;29.07;41.85;99541.69;4933934;29;20028;-87
2023/09/24 08:29:18;;;;;;;15.98;6.70;;;;;;;28.58;41.78;99488.31;4933628;29;20032;-87
2023/09/24 08:31:43;;;;;;;13.65;3.55;;;;;;;28.27;41.92;99513.81;4933942;29;20078;-85
2023/09/24 08:34:09;;;;;;;5.20;3.60;;;;;;;28.67;41.87;99535.44;4933805;29;20039;-85
2023/09/24 08:36:34;;;;;;;9.90;5.40;;;;;;;28.86;42.68;99541.88;4933610;29;20584;-87
2023/09/24 08:39:03;;;;;;;15.27;5.78;;;;;;;29.22;41.49;99493.22;4916127;29;20032;-86
2023/09/24 08:41:28;;;;;;;8.32;3.10;;;;;;;29.08;40.57;99502.69;4932748;29;20076;-86
2023/09/24 08:43:56;;;;;;;3.95;2.63;;;;;;;28.90;41.04;99522.44;4933736;29;20031;-86
2023/09/24 08:46:26;;;;;;;7.43;2.53;;;;;;;29.22;40.98;99539.41;4933770;29;20054;-88
2023/09/24 08:48:53;;;;;;;4.85;1.83;;;;;;;29.19;40.79;99517.94;4933562;29;20509;-88
2023/09/24 08:51:19;;;;;;;7.07;3.83;;;;;;;29.31;40.42;99546.66;4933315;29;20040;-86
2023/09/24 08:53:44;;;;;;;4.30;2.00;;;;;;;29.14;40.32;99520.25;4933421;29;20111;-87
2023/09/24 08:56:10;;;;;;;6.03;2.65;;;;;;;29.34;40.31;99504.78;4933298;29;20036;-88
2023/09/24 08:58:35;;;;;;;4.15;2.58;;;;;;;29.59;39.48;99504.09;4933763;29;20122;-86
2023/09/24 09:01:01;;;;;;;7.60;3.00;;;;;;;29.84;39.30;99522.59;4916641;29;20115;-86
2023/09/24 09:03:31;;;;;;;7.32;3.20;;;;;;;29.82;38.80;99501.84;4933293;29;20032;-86
2023/09/24 09:05:57;;;;;;;9.05;3.47;;;;;;;29.97;38.54;99513.06;4932983;29;20046;-88
2023/09/24 09:08:22;;;;;;;4.72;2.47;;;;;;;30.01;38.55;99467.41;4933103;29;20027;-88
2023/09/24 09:10:50;;;;;;;5.95;2.10;;;;;;;30.09;38.67;99505.56;4933176;29;20034;-87
2023/09/24 09:13:20;;;;;;;6.25;3.00;;;;;;;30.26;38.58;99476.69;4916445;29;20038;-91
2023/09/24 09:15:46;;;;;;;3.53;2.15;;;;;;;30.29;38.42;99500.84;4933090;29;20031;-88
2023/09/24 09:18:24;;;;;;;3.35;1.95;;;;;;;30.32;38.11;99488.78;4933232;29;20051;-89
2023/09/24 09:20:50;;;;;;;3.42;1.65;;;;;;;30.40;38.01;99478.03;4932950;29;20031;-89
2023/09/24 09:23:29;;;;;;;8.35;1.83;;;;;;;30.40;37.90;99464.44;4932676;29;20035;-87
2023/09/24 09:25:55;;;;;;;11.55;2.47;;;;;;;30.76;37.50;99534.31;4932452;29;20038;-89
2023/09/24 09:28:30;;;;;;;3.38;1.92;;;;;;;30.44;37.63;99489.44;4934929;29;20036;-89
2023/09/24 09:31:07;;;;;;;11.90;4.35;;;;;;;30.42;38.54;99467.84;4919429;29;20537;-89
2023/09/24 09:33:37;;;;;;;8.32;1.80;;;;;;;30.44;38.00;99454.91;4936694;29;20126;-88
2023/09/24 09:36:03;;;;;;;20.13;5.07;;;;;;;30.76;37.22;99499.75;4936317;29;20360;-88
2023/09/24 09:38:30;;;;;;;12.95;2.17;;;;;;;30.39;36.97;99470.88;4936616;29;20387;-88
2023/09/24 09:40:58;;;;;;;3.22;2.13;;;;;;;30.22;37.23;99445.34;4936476;29;20515;-86
2023/09/24 09:43:29;;;;;;;8.35;3.15;;;;;;;30.52;36.47;99470.47;4919682;29;20039;-90
2023/09/24 09:45:57;;;;;;;13.02;2.67;;;;;;;30.66;36.99;99461.75;4936535;29;20028;-86
2023/09/24 09:48:30;;;;;;;5.45;2.95;;;;;;;31.02;36.99;99486.19;4936640;29;20028;-86
2023/09/24 09:51:07;;;;;;;3.83;1.63;;;;;;;30.69;36.16;99442.38;4936618;29;20115;-87
2023/09/24 09:53:34;;;;;;;3.85;2.65;;;;;;;30.73;36.95;99486.47;4936264;29;20494;-87
2023/09/24 09:56:02;;;;;;;7.53;3.17;;;;;;;30.57;37.49;99473.59;4936186;29;20024;-86
2023/09/24 09:58:30;;;;;;;10.32;3.00;;;;;;;30.71;38.60;99444.94;4936293;29;20118;-87
2023/09/24 10:00:56;;;;;;;5.70;2.75;;;;;;;30.69;36.97;99466.00;4936086;29;20183;-84
2023/09/24 10:03:47;;;;;;;11.10;2.28;;;;;;;31.08;37.08;99473.81;4936457;29;20557;-86
2023/09/24 10:06:13;;;;;;;9.15;3.58;;;;;;;31.02;36.53;99463.56;4936097;29;20082;-87
2023/09/24 10:08:47;;;;;;;4.00;1.98;;;;;;;31.30;36.54;99501.53;4936243;29;20032;-86
2023/09/24 10:11:35;;;;;;;5.10;1.75;;;;;;;30.88;36.47;99441.31;4936425;29;20027;-87
2023/09/24 10:14:04;;;;;;;4.25;1.85;;;;;;;30.81;36.78;99451.13;4935999;29;20039;-89
2023/09/24 10:16:35;;;;;;;4.50;2.35;;;;;;;30.99;37.15;99499.28;4936322;29;20502;-86
2023/09/24 10:19:09;;;;;;;11.13;2.75;;;;;;;30.55;36.83;99432.06;4935937;29;20059;-88
2023/09/24 10:21:38;;;;;;;4.68;2.70;;;;;;;30.80;37.13;99463.03;4935355;29;20050;-87
2023/09/24 10:24:10;;;;;;;5.03;3.45;;;;;;;31.34;36.74;99501.03;4936131;29;20040;-90
2023/09/24 10:27:03;;;;;;;4.25;3.25;;;;;;;31.28;36.70;99429.97;4935332;29;20094;-88
2023/09/24 10:29:49;;;;;;;4.80;2.08;;;;;;;31.56;35.95;99477.00;4923789;29;20979;-86
2023/09/24 10:32:17;;;;;;;8.95;3.38;;;;;;;31.00;37.13;99408.38;4922647;29;20048;-89
2023/09/24 10:35:08;;;;;;;13.52;3.10;;;;;;;31.43;36.29;99461.03;4935468;29;20438;-89
2023/09/24 10:37:34;;;;;;;9.70;2.28;;;;;;;31.07;36.44;99406.72;4844772;29;20045;-87
2023/09/24 10:40:17;;;;;;;2.80;1.48;;;;;;;31.07;36.13;99414.91;4879032;29;20042;-90
2023/09/24 10:42:44;;;;;;;3.33;2.20;;;;;;;30.91;36.04;99402.03;4860140;29;20048;-88
2023/09/24 10:45:10;;;;;;;12.30;3.17;;;;;;;31.65;36.63;99467.78;4876457;29;20040;-85
2023/09/24 10:47:45;;;;;;;9.50;2.53;;;;;;;31.36;36.66;99438.22;4868282;29;20094;-85
2023/09/24 10:50:14;;;;;;;;;;;;;;;31.55;35.81;99454.31;4864766;29;20037;-86
2023/09/24 10:52:59;;;;;;;8.35;3.78;;;;;;;31.19;35.77;99402.72;4845380;29;19931;-87
2023/09/24 10:55:30;;;;;;;;;;;;;;;31.67;35.48;99448.56;4868139;29;20211;-88
2023/09/24 10:57:58;;;;;;;4.72;2.00;;;;;;;31.18;35.74;99403.72;4857713;29;19920;-84
2023/09/24 11:00:26;;;;;;;7.55;2.80;;;;;;;31.24;35.98;99422.13;4873145;29;20529;-90
2023/09/24 11:03:05;;;;;;;7.25;2.17;;;;;;;31.16;35.89;99413.09;4857916;29;20052;-88
2023/09/24 11:05:40;;;;;;;4.47;2.00;;;;;;;31.23;35.85;99433.19;4862249;29;20127;-85
2023/09/24 11:08:06;;;;;;;3.72;2.58;;;;;;;30.99;35.90;99387.63;4876039;29;20097;-89
2023/09/24 11:10:32;;;;;;;7.07;2.70;;;;;;;31.31;35.50;99418.75;4876563;29;20484;-87
2023/09/24 11:13:03;;;;;;;5.18;1.85;;;;;;;31.58;35.01;99393.19;4875512;29;20551;-86
2023/09/24 11:15:34;;;;;;;3.45;2.47;;;;;;;31.54;35.85;99365.41;4929080;29;20040;-88
2023/09/24 11:18:01;;;;;;;7.80;2.42;;;;;;;31.84;34.96;99359.47;4952764;29;20066;-89
2023/09/24 11:20:30;;;;;;;5.30;2.53;;;;;;;31.79;36.04;99351.78;4934813;29;20035;-95
2023/09/24 11:22:58;;;;;;;9.38;2.30;;;;;;;32.03;35.46;99400.06;4925251;29;20046;-94
2023/09/24 11:25:24;;;;;;;5.30;2.13;;;;;;;32.00;34.34;99369.56;4925128;29;20394;-89
2023/09/24 11:27:57;;;;;;;13.85;2.47;;;;;;;32.11;33.89;99361.91;4934302;29;20036;-89
2023/09/24 11:30:28;;;;;;;6.25;3.25;;;;;;;32.27;33.43;99366.53;4946575;29;20494;-94
2023/09/24 11:32:57;;;;;;;11.48;3.13;;;;;;;32.36;33.05;99367.34;4907644;29;20044;-88
2023/09/24 11:35:25;;;;;;;5.55;3.35;;;;;;;31.98;34.08;99358.81;4935105;29;20126;-90
2023/09/24 11:37:53;;;;;;;5.70;3.20;;;;;;;32.29;33.66;99383.56;4948311;29;20046;-94